sensor_id;sensor_type;location;lat;lon;timestamp;P1;durP1;ratioP1;P2;durP2;ratioP2
3307;SDS011;1666;48.898;9.182;2022-07-29T00:00:30;7.22;;;5.60;;
3307;SDS011;1666;48.898;9.182;2022-07-29T00:03:00;8.10;;;6.18;;
3307;SDS011;1666;48.898;9.182;2022-07-29T00:05:38;6.68;;;6.07;;
3307;SDS011;1666;48.898;9.182;2022-07-29T00:08:10;35.25;;;6.43;;
3307;SDS011;1666;48.898;9.182;2022-07-29T00:10:41;7.80;;;6.00;;
3307;SDS011;1666;48.898;9.182;2022-07-29T00:13:14;8.15;;;6.15;;
3307;SDS011;1666;48.898;9.182;2022-07-29T00:15:58;7.85;;;6.47;;
3307;SDS011;1666;48.898;9.182;2022-07-29T00:18:30;9.00;;;5.60;;
3307;SDS011;1666;48.898;9.182;2022-07-29T00:21:00;8.05;;;6.15;;
3307;SDS011;1666;48.898;9.182;2022-07-29T00:23:30;6.95;;;5.90;;
3307;SDS011;1666;48.898;9.182;2022-07-29T00:26:02;7.38;;;6.47;;
3307;SDS011;1666;48.898;9.182;2022-07-29T00:28:34;6.78;;;5.50;;
3307;SDS011;1666;48.898;9.182;2022-07-29T00:31:04;9.13;;;6.00;;
3307;SDS011;1666;48.898;9.182;2022-07-29T00:33:34;7.18;;;5.28;;
3307;SDS011;1666;48.898;9.182;2022-07-29T00:36:04;7.35;;;5.63;;
3307;SDS011;1666;48.898;9.182;2022-07-29T00:38:32;6.68;;;6.03;;
3307;SDS011;1666;48.898;9.182;2022-07-29T00:41:02;7.28;;;5.80;;
3307;SDS011;1666;48.898;9.182;2022-07-29T00:43:34;6.60;;;5.93;;
3307;SDS011;1666;48.898;9.182;2022-07-29T00:46:04;7.53;;;5.78;;
3307;SDS011;1666;48.898;9.182;2022-07-29T00:48:34;10.38;;;6.25;;
3307;SDS011;1666;48.898;9.182;2022-07-29T00:51:08;8.40;;;6.13;;
3307;SDS011;1666;48.898;9.182;2022-07-29T00:53:41;7.25;;;6.30;;
3307;SDS011;1666;48.898;9.182;2022-07-29T00:56:13;7.40;;;6.20;;
3307;SDS011;1666;48.898;9.182;2022-07-29T00:58:45;9.88;;;6.03;;
3307;SDS011;1666;48.898;9.182;2022-07-29T01:01:19;9.25;;;6.38;;
3307;SDS011;1666;48.898;9.182;2022-07-29T01:03:49;7.30;;;6.25;;
3307;SDS011;1666;48.898;9.182;2022-07-29T01:06:19;7.18;;;6.47;;
3307;SDS011;1666;48.898;9.182;2022-07-29T01:08:49;8.45;;;6.25;;
3307;SDS011;1666;48.898;9.182;2022-07-29T01:11:20;6.78;;;6.05;;
3307;SDS011;1666;48.898;9.182;2022-07-29T01:13:53;9.82;;;6.63;;
3307;SDS011;1666;48.898;9.182;2022-07-29T01:16:24;8.30;;;6.35;;
3307;SDS011;1666;48.898;9.182;2022-07-29T01:19:00;8.65;;;6.53;;
3307;SDS011;1666;48.898;9.182;2022-07-29T01:21:50;7.15;;;6.18;;
3307;SDS011;1666;48.898;9.182;2022-07-29T01:27:32;6.85;;;6.18;;
3307;SDS011;1666;48.898;9.182;2022-07-29T01:30:13;6.93;;;6.15;;
3307;SDS011;1666;48.898;9.182;2022-07-29T01:32:44;7.57;;;6.00;;
3307;SDS011;1666;48.898;9.182;2022-07-29T01:35:20;7.30;;;6.13;;
3307;SDS011;1666;48.898;9.182;2022-07-29T01:37:55;12.32;;;6.72;;
3307;SDS011;1666;48.898;9.182;2022-07-29T01:40:31;9.52;;;6.43;;
3307;SDS011;1666;48.898;9.182;2022-07-29T01:43:07;9.57;;;6.95;;
3307;SDS011;1666;48.898;9.182;2022-07-29T01:45:46;7.20;;;6.35;;
3307;SDS011;1666;48.898;9.182;2022-07-29T01:48:22;8.32;;;7.15;;
3307;SDS011;1666;48.898;9.182;2022-07-29T01:53:29;7.47;;;6.45;;
3307;SDS011;1666;48.898;9.182;2022-07-29T01:56:03;7.97;;;6.22;;
3307;SDS011;1666;48.898;9.182;2022-07-29T01:58:35;8.02;;;6.30;;
3307;SDS011;1666;48.898;9.182;2022-07-29T02:01:11;6.50;;;5.72;;
3307;SDS011;1666;48.898;9.182;2022-07-29T02:03:42;8.75;;;6.10;;
3307;SDS011;1666;48.898;9.182;2022-07-29T02:06:15;7.80;;;6.28;;
3307;SDS011;1666;48.898;9.182;2022-07-29T02:08:48;9.23;;;6.40;;
3307;SDS011;1666;48.898;9.182;2022-07-29T02:11:18;8.38;;;6.72;;
3307;SDS011;1666;48.898;9.182;2022-07-29T02:13:48;6.95;;;6.25;;
3307;SDS011;1666;48.898;9.182;2022-07-29T02:16:23;9.30;;;6.78;;
3307;SDS011;1666;48.898;9.182;2022-07-29T02:18:56;8.85;;;6.25;;
3307;SDS011;1666;48.898;9.182;2022-07-29T02:21:29;6.95;;;6.25;;
3307;SDS011;1666;48.898;9.182;2022-07-29T02:24:02;9.77;;;6.18;;
3307;SDS011;1666;48.898;9.182;2022-07-29T02:26:34;8.15;;;6.43;;
3307;SDS011;1666;48.898;9.182;2022-07-29T02:29:07;10.17;;;6.67;;
3307;SDS011;1666;48.898;9.182;2022-07-29T02:31:41;7.70;;;6.90;;
3307;SDS011;1666;48.898;9.182;2022-07-29T02:34:13;10.88;;;6.78;;
3307;SDS011;1666;48.898;9.182;2022-07-29T02:36:47;9.35;;;7.30;;
3307;SDS011;1666;48.898;9.182;2022-07-29T02:39:18;7.90;;;7.07;;
3307;SDS011;1666;48.898;9.182;2022-07-29T02:41:52;7.75;;;6.95;;
3307;SDS011;1666;48.898;9.182;2022-07-29T02:44:28;9.73;;;7.57;;
3307;SDS011;1666;48.898;9.182;2022-07-29T02:47:07;7.35;;;6.75;;
3307;SDS011;1666;48.898;9.182;2022-07-29T02:49:43;10.45;;;7.50;;
3307;SDS011;1666;48.898;9.182;2022-07-29T02:52:19;8.55;;;7.60;;
3307;SDS011;1666;48.898;9.182;2022-07-29T02:54:54;8.57;;;7.10;;
3307;SDS011;1666;48.898;9.182;2022-07-29T02:57:29;10.02;;;7.60;;
3307;SDS011;1666;48.898;9.182;2022-07-29T03:00:20;8.45;;;7.38;;
3307;SDS011;1666;48.898;9.182;2022-07-29T03:02:56;9.50;;;7.50;;
3307;SDS011;1666;48.898;9.182;2022-07-29T03:05:27;9.45;;;7.45;;
3307;SDS011;1666;48.898;9.182;2022-07-29T03:08:02;9.82;;;7.45;;
3307;SDS011;1666;48.898;9.182;2022-07-29T03:10:34;9.88;;;7.50;;
3307;SDS011;1666;48.898;9.182;2022-07-29T03:13:06;7.63;;;6.80;;
3307;SDS011;1666;48.898;9.182;2022-07-29T03:15:38;8.93;;;7.93;;
3307;SDS011;1666;48.898;9.182;2022-07-29T03:18:12;7.70;;;7.00;;
3307;SDS011;1666;48.898;9.182;2022-07-29T03:20:43;9.00;;;7.37;;
3307;SDS011;1666;48.898;9.182;2022-07-29T03:23:14;10.20;;;7.22;;
3307;SDS011;1666;48.898;9.182;2022-07-29T03:25:49;8.82;;;7.13;;
3307;SDS011;1666;48.898;9.182;2022-07-29T03:28:20;7.88;;;7.10;;
3307;SDS011;1666;48.898;9.182;2022-07-29T03:30:52;7.82;;;7.03;;
3307;SDS011;1666;48.898;9.182;2022-07-29T03:33:25;8.48;;;7.57;;
3307;SDS011;1666;48.898;9.182;2022-07-29T03:35:55;8.02;;;7.05;;
3307;SDS011;1666;48.898;9.182;2022-07-29T03:38:26;7.90;;;7.10;;
3307;SDS011;1666;48.898;9.182;2022-07-29T03:40:58;10.75;;;7.38;;
3307;SDS011;1666;48.898;9.182;2022-07-29T03:43:34;8.30;;;6.90;;
3307;SDS011;1666;48.898;9.182;2022-07-29T03:46:15;8.40;;;7.05;;
3307;SDS011;1666;48.898;9.182;2022-07-29T03:48:50;8.25;;;6.40;;
3307;SDS011;1666;48.898;9.182;2022-07-29T03:51:25;8.50;;;7.53;;
3307;SDS011;1666;48.898;9.182;2022-07-29T03:53:59;9.30;;;7.10;;
3307;SDS011;1666;48.898;9.182;2022-07-29T03:56:37;9.25;;;6.57;;
3307;SDS011;1666;48.898;9.182;2022-07-29T03:59:10;10.00;;;7.13;;
3307;SDS011;1666;48.898;9.182;2022-07-29T04:01:42;8.40;;;6.88;;
3307;SDS011;1666;48.898;9.182;2022-07-29T04:04:15;8.35;;;6.28;;
3307;SDS011;1666;48.898;9.182;2022-07-29T04:06:46;8.43;;;6.60;;
3307;SDS011;1666;48.898;9.182;2022-07-29T04:09:16;9.43;;;6.13;;
3307;SDS011;1666;48.898;9.182;2022-07-29T04:11:46;7.20;;;6.00;;
3307;SDS011;1666;48.898;9.182;2022-07-29T04:14:29;7.95;;;5.97;;
3307;SDS011;1666;48.898;9.182;2022-07-29T04:16:59;8.02;;;6.13;;
3307;SDS011;1666;48.898;9.182;2022-07-29T04:19:32;7.30;;;6.38;;
3307;SDS011;1666;48.898;9.182;2022-07-29T04:22:02;6.57;;;5.93;;
3307;SDS011;1666;48.898;9.182;2022-07-29T04:24:32;7.78;;;6.57;;
3307;SDS011;1666;48.898;9.182;2022-07-29T04:27:02;7.80;;;6.25;;
3307;SDS011;1666;48.898;9.182;2022-07-29T04:29:32;7.47;;;5.90;;
3307;SDS011;1666;48.898;9.182;2022-07-29T04:32:21;7.68;;;6.40;;
3307;SDS011;1666;48.898;9.182;2022-07-29T04:34:54;7.43;;;6.18;;
3307;SDS011;1666;48.898;9.182;2022-07-29T04:37:24;10.55;;;6.45;;
3307;SDS011;1666;48.898;9.182;2022-07-29T04:39:53;6.50;;;5.82;;
3307;SDS011;1666;48.898;9.182;2022-07-29T04:42:24;9.98;;;6.97;;
3307;SDS011;1666;48.898;9.182;2022-07-29T04:44:55;7.68;;;6.40;;
3307;SDS011;1666;48.898;9.182;2022-07-29T04:47:26;6.97;;;6.32;;
3307;SDS011;1666;48.898;9.182;2022-07-29T04:49:59;8.88;;;6.90;;
3307;SDS011;1666;48.898;9.182;2022-07-29T04:52:29;9.13;;;6.30;;
3307;SDS011;1666;48.898;9.182;2022-07-29T04:54:59;7.32;;;6.63;;
3307;SDS011;1666;48.898;9.182;2022-07-29T04:57:28;7.50;;;6.28;;
3307;SDS011;1666;48.898;9.182;2022-07-29T04:59:59;7.35;;;6.65;;
3307;SDS011;1666;48.898;9.182;2022-07-29T05:02:29;9.23;;;5.82;;
3307;SDS011;1666;48.898;9.182;2022-07-29T05:05:01;6.75;;;6.10;;
3307;SDS011;1666;48.898;9.182;2022-07-29T05:07:31;7.15;;;5.97;;
3307;SDS011;1666;48.898;9.182;2022-07-29T05:10:02;6.63;;;5.40;;
3307;SDS011;1666;48.898;9.182;2022-07-29T05:12:32;7.82;;;5.25;;
3307;SDS011;1666;48.898;9.182;2022-07-29T05:15:03;5.93;;;5.30;;
3307;SDS011;1666;48.898;9.182;2022-07-29T05:17:33;6.60;;;5.85;;
3307;SDS011;1666;48.898;9.182;2022-07-29T05:20:06;8.05;;;5.85;;
3307;SDS011;1666;48.898;9.182;2022-07-29T05:22:37;6.38;;;5.78;;
3307;SDS011;1666;48.898;9.182;2022-07-29T05:25:07;7.68;;;6.68;;
3307;SDS011;1666;48.898;9.182;2022-07-29T05:27:38;9.23;;;6.47;;
3307;SDS011;1666;48.898;9.182;2022-07-29T05:30:08;10.88;;;7.40;;
3307;SDS011;1666;48.898;9.182;2022-07-29T05:32:39;7.43;;;5.75;;
3307;SDS011;1666;48.898;9.182;2022-07-29T05:35:11;7.47;;;6.07;;
3307;SDS011;1666;48.898;9.182;2022-07-29T05:37:42;8.55;;;6.65;;
3307;SDS011;1666;48.898;9.182;2022-07-29T05:40:12;7.65;;;6.82;;
3307;SDS011;1666;48.898;9.182;2022-07-29T05:42:42;6.43;;;5.78;;
3307;SDS011;1666;48.898;9.182;2022-07-29T05:45:12;6.45;;;5.50;;
3307;SDS011;1666;48.898;9.182;2022-07-29T05:47:42;7.82;;;5.47;;
3307;SDS011;1666;48.898;9.182;2022-07-29T05:50:14;8.35;;;5.55;;
3307;SDS011;1666;48.898;9.182;2022-07-29T05:52:44;5.97;;;5.38;;
3307;SDS011;1666;48.898;9.182;2022-07-29T05:55:15;7.20;;;5.20;;
3307;SDS011;1666;48.898;9.182;2022-07-29T05:57:45;5.95;;;5.07;;
3307;SDS011;1666;48.898;9.182;2022-07-29T06:00:15;9.57;;;5.50;;
3307;SDS011;1666;48.898;9.182;2022-07-29T06:02:45;6.38;;;5.70;;
3307;SDS011;1666;48.898;9.182;2022-07-29T06:05:18;5.88;;;5.28;;
3307;SDS011;1666;48.898;9.182;2022-07-29T06:07:48;5.25;;;4.70;;
3307;SDS011;1666;48.898;9.182;2022-07-29T06:10:17;7.07;;;5.25;;
3307;SDS011;1666;48.898;9.182;2022-07-29T06:12:52;6.68;;;5.35;;
3307;SDS011;1666;48.898;9.182;2022-07-29T06:15:22;6.85;;;5.88;;
3307;SDS011;1666;48.898;9.182;2022-07-29T06:17:52;7.85;;;5.63;;
3307;SDS011;1666;48.898;9.182;2022-07-29T06:20:30;5.72;;;5.18;;
3307;SDS011;1666;48.898;9.182;2022-07-29T06:23:03;8.00;;;5.70;;
3307;SDS011;1666;48.898;9.182;2022-07-29T06:25:35;6.60;;;4.72;;
3307;SDS011;1666;48.898;9.182;2022-07-29T06:28:06;5.43;;;4.88;;
3307;SDS011;1666;48.898;9.182;2022-07-29T06:30:35;5.75;;;4.38;;
3307;SDS011;1666;48.898;9.182;2022-07-29T06:33:05;6.45;;;4.40;;
3307;SDS011;1666;48.898;9.182;2022-07-29T06:35:38;6.82;;;4.72;;
3307;SDS011;1666;48.898;9.182;2022-07-29T06:38:20;6.45;;;4.40;;
3307;SDS011;1666;48.898;9.182;2022-07-29T06:40:59;6.68;;;4.78;;
3307;SDS011;1666;48.898;9.182;2022-07-29T06:43:31;4.50;;;3.95;;
3307;SDS011;1666;48.898;9.182;2022-07-29T06:46:16;7.55;;;4.40;;
3307;SDS011;1666;48.898;9.182;2022-07-29T06:48:48;4.97;;;4.03;;
3307;SDS011;1666;48.898;9.182;2022-07-29T06:51:22;5.88;;;4.05;;
3307;SDS011;1666;48.898;9.182;2022-07-29T06:53:53;7.47;;;4.47;;
3307;SDS011;1666;48.898;9.182;2022-07-29T06:56:29;4.50;;;4.10;;
3307;SDS011;1666;48.898;9.182;2022-07-29T06:59:05;6.20;;;4.15;;
3307;SDS011;1666;48.898;9.182;2022-07-29T07:01:36;4.72;;;3.72;;
3307;SDS011;1666;48.898;9.182;2022-07-29T07:04:07;7.93;;;4.18;;
3307;SDS011;1666;48.898;9.182;2022-07-29T07:06:40;5.50;;;4.30;;
3307;SDS011;1666;48.898;9.182;2022-07-29T07:09:10;6.72;;;4.18;;
3307;SDS011;1666;48.898;9.182;2022-07-29T07:11:40;9.50;;;4.40;;
3307;SDS011;1666;48.898;9.182;2022-07-29T07:14:14;6.00;;;4.13;;
3307;SDS011;1666;48.898;9.182;2022-07-29T07:16:45;6.60;;;4.25;;
3307;SDS011;1666;48.898;9.182;2022-07-29T07:19:18;5.55;;;4.03;;
3307;SDS011;1666;48.898;9.182;2022-07-29T07:21:53;6.63;;;4.10;;
3307;SDS011;1666;48.898;9.182;2022-07-29T07:24:23;5.95;;;4.00;;
3307;SDS011;1666;48.898;9.182;2022-07-29T07:26:53;8.60;;;5.10;;
3307;SDS011;1666;48.898;9.182;2022-07-29T07:29:23;4.63;;;3.83;;
3307;SDS011;1666;48.898;9.182;2022-07-29T07:31:53;10.35;;;3.90;;
3307;SDS011;1666;48.898;9.182;2022-07-29T07:34:26;4.60;;;3.90;;
3307;SDS011;1666;48.898;9.182;2022-07-29T07:37:00;6.18;;;3.90;;
3307;SDS011;1666;48.898;9.182;2022-07-29T07:39:30;6.30;;;3.83;;
3307;SDS011;1666;48.898;9.182;2022-07-29T07:42:00;4.25;;;3.72;;
3307;SDS011;1666;48.898;9.182;2022-07-29T07:44:30;4.85;;;3.58;;
3307;SDS011;1666;48.898;9.182;2022-07-29T07:47:19;4.40;;;3.60;;
3307;SDS011;1666;48.898;9.182;2022-07-29T07:49:53;7.18;;;4.50;;
3307;SDS011;1666;48.898;9.182;2022-07-29T07:52:26;7.30;;;3.95;;
3307;SDS011;1666;48.898;9.182;2022-07-29T07:54:56;5.45;;;4.15;;
3307;SDS011;1666;48.898;9.182;2022-07-29T07:57:25;5.10;;;4.30;;
3307;SDS011;1666;48.898;9.182;2022-07-29T07:59:55;6.38;;;4.30;;
3307;SDS011;1666;48.898;9.182;2022-07-29T08:02:25;7.72;;;4.00;;
3307;SDS011;1666;48.898;9.182;2022-07-29T08:04:55;6.32;;;4.28;;
3307;SDS011;1666;48.898;9.182;2022-07-29T08:07:28;7.30;;;4.28;;
3307;SDS011;1666;48.898;9.182;2022-07-29T08:09:58;6.32;;;4.40;;
3307;SDS011;1666;48.898;9.182;2022-07-29T08:12:28;5.03;;;3.45;;
3307;SDS011;1666;48.898;9.182;2022-07-29T08:14:58;4.80;;;3.67;;
3307;SDS011;1666;48.898;9.182;2022-07-29T08:17:28;5.15;;;3.55;;
3307;SDS011;1666;48.898;9.182;2022-07-29T08:20:00;6.57;;;4.18;;
3307;SDS011;1666;48.898;9.182;2022-07-29T08:22:33;6.05;;;4.40;;
3307;SDS011;1666;48.898;9.182;2022-07-29T08:25:04;5.30;;;4.00;;
3307;SDS011;1666;48.898;9.182;2022-07-29T08:27:34;6.13;;;4.07;;
3307;SDS011;1666;48.898;9.182;2022-07-29T08:30:10;4.40;;;3.92;;
3307;SDS011;1666;48.898;9.182;2022-07-29T08:32:41;7.30;;;4.22;;
3307;SDS011;1666;48.898;9.182;2022-07-29T08:35:20;7.93;;;4.50;;
3307;SDS011;1666;48.898;9.182;2022-07-29T08:37:54;5.60;;;4.03;;
3307;SDS011;1666;48.898;9.182;2022-07-29T08:40:25;6.30;;;4.20;;
3307;SDS011;1666;48.898;9.182;2022-07-29T08:42:58;5.57;;;4.20;;
3307;SDS011;1666;48.898;9.182;2022-07-29T08:45:36;6.13;;;4.22;;
3307;SDS011;1666;48.898;9.182;2022-07-29T08:48:14;7.55;;;4.22;;
3307;SDS011;1666;48.898;9.182;2022-07-29T08:50:46;5.65;;;4.03;;
3307;SDS011;1666;48.898;9.182;2022-07-29T08:53:19;6.93;;;4.25;;
3307;SDS011;1666;48.898;9.182;2022-07-29T08:55:53;4.60;;;3.90;;
3307;SDS011;1666;48.898;9.182;2022-07-29T08:58:23;4.78;;;4.13;;
3307;SDS011;1666;48.898;9.182;2022-07-29T09:00:55;4.57;;;4.10;;
3307;SDS011;1666;48.898;9.182;2022-07-29T09:03:26;6.07;;;3.97;;
3307;SDS011;1666;48.898;9.182;2022-07-29T09:06:01;7.20;;;4.40;;
3307;SDS011;1666;48.898;9.182;2022-07-29T09:08:33;7.65;;;4.38;;
3307;SDS011;1666;48.898;9.182;2022-07-29T09:11:04;4.22;;;3.70;;
3307;SDS011;1666;48.898;9.182;2022-07-29T09:13:34;5.90;;;4.20;;
3307;SDS011;1666;48.898;9.182;2022-07-29T09:16:04;4.60;;;4.20;;
3307;SDS011;1666;48.898;9.182;2022-07-29T09:18:35;6.63;;;4.07;;
3307;SDS011;1666;48.898;9.182;2022-07-29T09:21:07;8.45;;;4.50;;
3307;SDS011;1666;48.898;9.182;2022-07-29T09:24:05;6.40;;;4.30;;
3307;SDS011;1666;48.898;9.182;2022-07-29T09:26:36;8.98;;;4.07;;
3307;SDS011;1666;48.898;9.182;2022-07-29T09:29:09;6.50;;;4.25;;
3307;SDS011;1666;48.898;9.182;2022-07-29T09:31:40;6.13;;;4.07;;
3307;SDS011;1666;48.898;9.182;2022-07-29T09:34:12;6.90;;;4.50;;
3307;SDS011;1666;48.898;9.182;2022-07-29T09:36:44;4.68;;;4.28;;
3307;SDS011;1666;48.898;9.182;2022-07-29T09:39:26;8.70;;;4.07;;
3307;SDS011;1666;48.898;9.182;2022-07-29T09:41:57;5.60;;;4.38;;
3307;SDS011;1666;48.898;9.182;2022-07-29T09:44:40;5.07;;;4.25;;
3307;SDS011;1666;48.898;9.182;2022-07-29T09:47:12;6.15;;;4.00;;
3307;SDS011;1666;48.898;9.182;2022-07-29T09:49:51;5.72;;;4.10;;
3307;SDS011;1666;48.898;9.182;2022-07-29T09:52:24;11.00;;;3.75;;
3307;SDS011;1666;48.898;9.182;2022-07-29T09:55:06;7.40;;;4.22;;
3307;SDS011;1666;48.898;9.182;2022-07-29T09:57:43;4.70;;;4.10;;
3307;SDS011;1666;48.898;9.182;2022-07-29T10:00:15;7.30;;;4.22;;
3307;SDS011;1666;48.898;9.182;2022-07-29T10:02:46;4.95;;;4.45;;
3307;SDS011;1666;48.898;9.182;2022-07-29T10:05:18;7.47;;;4.40;;
3307;SDS011;1666;48.898;9.182;2022-07-29T10:07:50;5.25;;;4.32;;
3307;SDS011;1666;48.898;9.182;2022-07-29T10:10:26;8.80;;;4.60;;
3307;SDS011;1666;48.898;9.182;2022-07-29T10:12:57;4.78;;;4.00;;
3307;SDS011;1666;48.898;9.182;2022-07-29T10:15:34;10.85;;;4.93;;
3307;SDS011;1666;48.898;9.182;2022-07-29T10:18:07;5.75;;;4.25;;
3307;SDS011;1666;48.898;9.182;2022-07-29T10:20:38;5.35;;;4.30;;
3307;SDS011;1666;48.898;9.182;2022-07-29T10:23:08;4.85;;;4.10;;
3307;SDS011;1666;48.898;9.182;2022-07-29T10:25:41;4.97;;;4.05;;
3307;SDS011;1666;48.898;9.182;2022-07-29T10:28:12;5.60;;;4.00;;
3307;SDS011;1666;48.898;9.182;2022-07-29T10:30:42;8.82;;;4.70;;
3307;SDS011;1666;48.898;9.182;2022-07-29T10:33:20;7.10;;;4.55;;
3307;SDS011;1666;48.898;9.182;2022-07-29T10:36:02;5.50;;;4.05;;
3307;SDS011;1666;48.898;9.182;2022-07-29T10:38:43;6.35;;;4.50;;
3307;SDS011;1666;48.898;9.182;2022-07-29T10:44:26;6.70;;;4.20;;
3307;SDS011;1666;48.898;9.182;2022-07-29T10:46:57;6.15;;;4.43;;
3307;SDS011;1666;48.898;9.182;2022-07-29T10:49:27;8.77;;;4.10;;
3307;SDS011;1666;48.898;9.182;2022-07-29T10:52:03;6.05;;;4.70;;
3307;SDS011;1666;48.898;9.182;2022-07-29T10:54:42;7.57;;;4.47;;
3307;SDS011;1666;48.898;9.182;2022-07-29T10:57:15;7.03;;;4.47;;
3307;SDS011;1666;48.898;9.182;2022-07-29T11:02:59;8.82;;;4.40;;
3307;SDS011;1666;48.898;9.182;2022-07-29T11:08:25;7.10;;;4.05;;
3307;SDS011;1666;48.898;9.182;2022-07-29T11:14:03;5.53;;;4.38;;
3307;SDS011;1666;48.898;9.182;2022-07-29T11:19:34;5.47;;;4.18;;
3307;SDS011;1666;48.898;9.182;2022-07-29T11:22:12;6.30;;;4.20;;
3307;SDS011;1666;48.898;9.182;2022-07-29T11:25:13;5.80;;;3.80;;
3307;SDS011;1666;48.898;9.182;2022-07-29T11:28:08;6.05;;;3.97;;
3307;SDS011;1666;48.898;9.182;2022-07-29T11:30:51;6.88;;;3.97;;
3307;SDS011;1666;48.898;9.182;2022-07-29T11:33:29;5.45;;;3.90;;
3307;SDS011;1666;48.898;9.182;2022-07-29T11:36:20;9.05;;;3.60;;
3307;SDS011;1666;48.898;9.182;2022-07-29T11:39:05;12.10;;;3.85;;
3307;SDS011;1666;48.898;9.182;2022-07-29T11:45:08;4.97;;;3.70;;
3307;SDS011;1666;48.898;9.182;2022-07-29T11:47:59;8.63;;;3.80;;
3307;SDS011;1666;48.898;9.182;2022-07-29T11:50:52;5.03;;;3.42;;
3307;SDS011;1666;48.898;9.182;2022-07-29T11:53:23;6.18;;;4.20;;
3307;SDS011;1666;48.898;9.182;2022-07-29T11:55:58;5.63;;;4.60;;
3307;SDS011;1666;48.898;9.182;2022-07-29T11:58:29;7.95;;;4.43;;
3307;SDS011;1666;48.898;9.182;2022-07-29T12:00:59;6.88;;;4.38;;
3307;SDS011;1666;48.898;9.182;2022-07-29T12:03:30;5.30;;;4.70;;
3307;SDS011;1666;48.898;9.182;2022-07-29T12:06:10;8.95;;;5.07;;
3307;SDS011;1666;48.898;9.182;2022-07-29T12:09:06;9.40;;;5.15;;
3307;SDS011;1666;48.898;9.182;2022-07-29T12:11:40;5.95;;;4.68;;
3307;SDS011;1666;48.898;9.182;2022-07-29T12:14:25;6.78;;;4.90;;
3307;SDS011;1666;48.898;9.182;2022-07-29T12:16:57;6.00;;;4.63;;
3307;SDS011;1666;48.898;9.182;2022-07-29T12:19:27;5.50;;;4.72;;
3307;SDS011;1666;48.898;9.182;2022-07-29T12:21:59;7.05;;;4.28;;
3307;SDS011;1666;48.898;9.182;2022-07-29T12:24:42;4.97;;;4.53;;
3307;SDS011;1666;48.898;9.182;2022-07-29T12:27:16;5.72;;;4.50;;
3307;SDS011;1666;48.898;9.182;2022-07-29T12:29:55;6.28;;;4.50;;
3307;SDS011;1666;48.898;9.182;2022-07-29T12:32:30;7.60;;;4.50;;
3307;SDS011;1666;48.898;9.182;2022-07-29T12:35:02;6.07;;;5.25;;
3307;SDS011;1666;48.898;9.182;2022-07-29T12:37:37;5.60;;;4.53;;
3307;SDS011;1666;48.898;9.182;2022-07-29T12:40:09;6.63;;;4.15;;
3307;SDS011;1666;48.898;9.182;2022-07-29T12:45:42;7.18;;;4.40;;
3307;SDS011;1666;48.898;9.182;2022-07-29T12:48:15;7.65;;;4.55;;
3307;SDS011;1666;48.898;9.182;2022-07-29T12:50:53;7.78;;;4.88;;
3307;SDS011;1666;48.898;9.182;2022-07-29T12:53:27;6.82;;;5.05;;
3307;SDS011;1666;48.898;9.182;2022-07-29T12:55:57;7.35;;;4.43;;
3307;SDS011;1666;48.898;9.182;2022-07-29T12:58:41;5.55;;;4.22;;
3307;SDS011;1666;48.898;9.182;2022-07-29T13:01:16;6.60;;;3.90;;
3307;SDS011;1666;48.898;9.182;2022-07-29T13:03:48;5.80;;;4.50;;
3307;SDS011;1666;48.898;9.182;2022-07-29T13:06:30;5.70;;;4.43;;
3307;SDS011;1666;48.898;9.182;2022-07-29T13:09:14;7.63;;;4.85;;
3307;SDS011;1666;48.898;9.182;2022-07-29T13:11:45;6.63;;;4.45;;
3307;SDS011;1666;48.898;9.182;2022-07-29T13:14:30;6.90;;;4.63;;
3307;SDS011;1666;48.898;9.182;2022-07-29T13:17:02;5.85;;;4.10;;
3307;SDS011;1666;48.898;9.182;2022-07-29T13:19:34;5.37;;;4.10;;
3307;SDS011;1666;48.898;9.182;2022-07-29T13:22:06;6.28;;;4.10;;
3307;SDS011;1666;48.898;9.182;2022-07-29T13:24:50;20.73;;;17.77;;
3307;SDS011;1666;48.898;9.182;2022-07-29T13:27:21;4.95;;;3.80;;
3307;SDS011;1666;48.898;9.182;2022-07-29T13:29:52;4.15;;;3.80;;
3307;SDS011;1666;48.898;9.182;2022-07-29T13:32:26;6.03;;;3.65;;
3307;SDS011;1666;48.898;9.182;2022-07-29T13:34:58;5.38;;;3.35;;
3307;SDS011;1666;48.898;9.182;2022-07-29T13:37:31;4.65;;;3.60;;
3307;SDS011;1666;48.898;9.182;2022-07-29T13:40:04;4.05;;;3.40;;
3307;SDS011;1666;48.898;9.182;2022-07-29T13:45:06;4.85;;;3.00;;
3307;SDS011;1666;48.898;9.182;2022-07-29T13:47:37;5.78;;;3.15;;
3307;SDS011;1666;48.898;9.182;2022-07-29T13:50:14;3.78;;;3.15;;
3307;SDS011;1666;48.898;9.182;2022-07-29T13:52:45;3.53;;;3.15;;
3307;SDS011;1666;48.898;9.182;2022-07-29T13:55:19;5.10;;;3.10;;
3307;SDS011;1666;48.898;9.182;2022-07-29T13:57:49;6.88;;;3.17;;
3307;SDS011;1666;48.898;9.182;2022-07-29T14:00:19;7.20;;;4.00;;
3307;SDS011;1666;48.898;9.182;2022-07-29T14:02:50;4.22;;;3.53;;
3307;SDS011;1666;48.898;9.182;2022-07-29T14:05:19;7.05;;;3.83;;
3307;SDS011;1666;48.898;9.182;2022-07-29T14:07:49;6.47;;;3.92;;
3307;SDS011;1666;48.898;9.182;2022-07-29T14:10:22;7.50;;;3.45;;
3307;SDS011;1666;48.898;9.182;2022-07-29T14:12:52;7.25;;;5.32;;
3307;SDS011;1666;48.898;9.182;2022-07-29T14:15:21;6.43;;;3.85;;
3307;SDS011;1666;48.898;9.182;2022-07-29T14:17:51;6.15;;;3.85;;
3307;SDS011;1666;48.898;9.182;2022-07-29T14:20:21;4.35;;;3.88;;
3307;SDS011;1666;48.898;9.182;2022-07-29T14:22:51;7.75;;;4.20;;
3307;SDS011;1666;48.898;9.182;2022-07-29T14:25:24;7.38;;;4.13;;
3307;SDS011;1666;48.898;9.182;2022-07-29T14:27:54;4.65;;;3.60;;
3307;SDS011;1666;48.898;9.182;2022-07-29T14:30:24;4.65;;;3.75;;
3307;SDS011;1666;48.898;9.182;2022-07-29T14:32:53;6.40;;;3.70;;
3307;SDS011;1666;48.898;9.182;2022-07-29T14:35:23;4.80;;;3.72;;
3307;SDS011;1666;48.898;9.182;2022-07-29T14:37:54;5.93;;;3.38;;
3307;SDS011;1666;48.898;9.182;2022-07-29T14:40:26;5.75;;;3.58;;
3307;SDS011;1666;48.898;9.182;2022-07-29T14:42:56;5.00;;;4.50;;
3307;SDS011;1666;48.898;9.182;2022-07-29T14:45:26;4.32;;;3.60;;
3307;SDS011;1666;48.898;9.182;2022-07-29T14:47:57;6.35;;;3.70;;
3307;SDS011;1666;48.898;9.182;2022-07-29T14:50:28;4.68;;;3.85;;
3307;SDS011;1666;48.898;9.182;2022-07-29T14:52:58;4.95;;;3.85;;
3307;SDS011;1666;48.898;9.182;2022-07-29T14:55:30;6.00;;;3.92;;
3307;SDS011;1666;48.898;9.182;2022-07-29T14:58:00;6.22;;;3.80;;
3307;SDS011;1666;48.898;9.182;2022-07-29T15:00:38;4.63;;;3.53;;
3307;SDS011;1666;48.898;9.182;2022-07-29T15:03:08;6.13;;;3.42;;
3307;SDS011;1666;48.898;9.182;2022-07-29T15:05:49;5.05;;;3.63;;
3307;SDS011;1666;48.898;9.182;2022-07-29T15:08:19;4.00;;;3.67;;
3307;SDS011;1666;48.898;9.182;2022-07-29T15:10:51;7.60;;;3.55;;
3307;SDS011;1666;48.898;9.182;2022-07-29T15:13:23;6.70;;;3.80;;
3307;SDS011;1666;48.898;9.182;2022-07-29T15:15:53;4.90;;;3.80;;
3307;SDS011;1666;48.898;9.182;2022-07-29T15:18:29;9.57;;;3.50;;
3307;SDS011;1666;48.898;9.182;2022-07-29T15:20:59;3.67;;;2.67;;
3307;SDS011;1666;48.898;9.182;2022-07-29T15:23:29;4.80;;;2.33;;
3307;SDS011;1666;48.898;9.182;2022-07-29T15:26:01;4.85;;;2.55;;
3307;SDS011;1666;48.898;9.182;2022-07-29T15:28:31;6.40;;;2.20;;
3307;SDS011;1666;48.898;9.182;2022-07-29T15:31:01;6.78;;;2.35;;
3307;SDS011;1666;48.898;9.182;2022-07-29T15:33:31;3.00;;;1.88;;
3307;SDS011;1666;48.898;9.182;2022-07-29T15:36:01;5.07;;;2.10;;
3307;SDS011;1666;48.898;9.182;2022-07-29T15:38:31;3.90;;;2.00;;
3307;SDS011;1666;48.898;9.182;2022-07-29T15:41:12;3.80;;;1.85;;
3307;SDS011;1666;48.898;9.182;2022-07-29T15:43:43;4.50;;;1.90;;
3307;SDS011;1666;48.898;9.182;2022-07-29T15:46:15;2.85;;;1.77;;
3307;SDS011;1666;48.898;9.182;2022-07-29T15:51:28;4.65;;;2.17;;
3307;SDS011;1666;48.898;9.182;2022-07-29T15:53:58;2.85;;;2.10;;
3307;SDS011;1666;48.898;9.182;2022-07-29T15:56:32;6.13;;;2.35;;
3307;SDS011;1666;48.898;9.182;2022-07-29T15:59:02;4.78;;;1.98;;
3307;SDS011;1666;48.898;9.182;2022-07-29T16:01:32;3.40;;;1.65;;
3307;SDS011;1666;48.898;9.182;2022-07-29T16:04:07;5.38;;;2.00;;
3307;SDS011;1666;48.898;9.182;2022-07-29T16:06:38;2.83;;;1.77;;
3307;SDS011;1666;48.898;9.182;2022-07-29T16:09:08;5.15;;;2.00;;
3307;SDS011;1666;48.898;9.182;2022-07-29T16:11:40;7.43;;;1.85;;
3307;SDS011;1666;48.898;9.182;2022-07-29T16:14:11;4.78;;;1.98;;
3307;SDS011;1666;48.898;9.182;2022-07-29T16:16:41;3.20;;;2.00;;
3307;SDS011;1666;48.898;9.182;2022-07-29T16:19:11;2.75;;;2.08;;
3307;SDS011;1666;48.898;9.182;2022-07-29T16:21:41;4.70;;;1.90;;
3307;SDS011;1666;48.898;9.182;2022-07-29T16:24:11;3.42;;;2.00;;